sensor_id;sensor_type;location;lat;lon;timestamp;pressure;altitude;pressure_sealevel;temperature;humidity
54512;BME280;40419;47.438;19.026;2023-06-05T00:00:40;100177.28;;;16.87;83.64
54512;BME280;40419;47.438;19.026;2023-06-05T00:03:08;100176.91;;;16.83;83.61
54512;BME280;40419;47.438;19.026;2023-06-05T00:05:36;100178.47;;;16.91;81.38
54512;BME280;40419;47.438;19.026;2023-06-05T00:08:03;100174.66;;;16.92;82.74
54512;BME280;40419;47.438;19.026;2023-06-05T00:10:34;100175.75;;;16.91;83.06
54512;BME280;40419;47.438;19.026;2023-06-05T00:13:01;100178.97;;;16.88;82.56
54512;BME280;40419;47.438;19.026;2023-06-05T00:15:29;100176.19;;;16.76;83.43
54512;BME280;40419;47.438;19.026;2023-06-05T00:18:02;100177.00;;;16.77;83.74
54512;BME280;40419;47.438;19.026;2023-06-05T00:20:32;100171.06;;;16.80;82.91
54512;BME280;40419;47.438;19.026;2023-06-05T00:22:57;100166.19;;;16.82;81.93
54512;BME280;40419;47.438;19.026;2023-06-05T00:25:26;100172.47;;;16.71;82.05
54512;BME280;40419;47.438;19.026;2023-06-05T00:27:53;100173.84;;;17.04;80.41
54512;BME280;40419;47.438;19.026;2023-06-05T00:30:21;100169.41;;;16.91;81.24
54512;BME280;40419;47.438;19.026;2023-06-05T00:32:47;100172.84;;;16.74;80.22
54512;BME280;40419;47.438;19.026;2023-06-05T00:35:13;100165.53;;;16.98;78.16
54512;BME280;40419;47.438;19.026;2023-06-05T00:37:42;100159.81;;;17.00;78.82
54512;BME280;40419;47.438;19.026;2023-06-05T00:40:14;100160.06;;;16.87;79.52
54512;BME280;40419;47.438;19.026;2023-06-05T00:42:40;100161.69;;;16.99;78.44
54512;BME280;40419;47.438;19.026;2023-06-05T00:45:09;100166.34;;;17.11;76.33
54512;BME280;40419;47.438;19.026;2023-06-05T00:47:37;100166.81;;;17.20;75.96
54512;BME280;40419;47.438;19.026;2023-06-05T00:50:03;100168.47;;;17.21;77.24
54512;BME280;40419;47.438;19.026;2023-06-05T00:52:32;100166.34;;;17.11;78.79
54512;BME280;40419;47.438;19.026;2023-06-05T00:55:00;100175.03;;;16.96;77.86
54512;BME280;40419;47.438;19.026;2023-06-05T00:57:26;100165.03;;;16.90;77.18
54512;BME280;40419;47.438;19.026;2023-06-05T00:59:59;100161.13;;;16.97;77.38
54512;BME280;40419;47.438;19.026;2023-06-05T01:02:24;100165.88;;;17.02;75.47
54512;BME280;40419;47.438;19.026;2023-06-05T01:04:55;100162.31;;;17.02;78.54
54512;BME280;40419;47.438;19.026;2023-06-05T01:07:24;100161.84;;;17.05;77.92
54512;BME280;40419;47.438;19.026;2023-06-05T01:09:54;100160.16;;;17.04;78.49
54512;BME280;40419;47.438;19.026;2023-06-05T01:12:55;100160.06;;;16.98;77.35
54512;BME280;40419;47.438;19.026;2023-06-05T01:15:24;100155.66;;;16.97;77.51
54512;BME280;40419;47.438;19.026;2023-06-05T01:17:58;100149.13;;;16.87;76.58
54512;BME280;40419;47.438;19.026;2023-06-05T01:20:40;100154.59;;;16.87;77.20
54512;BME280;40419;47.438;19.026;2023-06-05T01:23:13;100161.22;;;16.91;77.13
54512;BME280;40419;47.438;19.026;2023-06-05T01:25:39;100160.88;;;16.99;75.88
54512;BME280;40419;47.438;19.026;2023-06-05T01:31:00;100156.94;;;16.95;76.10
54512;BME280;40419;47.438;19.026;2023-06-05T01:35:54;100156.00;;;16.89;76.53
54512;BME280;40419;47.438;19.026;2023-06-05T01:38:35;100151.94;;;16.92;78.16
54512;BME280;40419;47.438;19.026;2023-06-05T01:41:02;100151.59;;;16.88;78.69
54512;BME280;40419;47.438;19.026;2023-06-05T01:43:32;100155.41;;;16.99;75.96
54512;BME280;40419;47.438;19.026;2023-06-05T01:45:59;100156.94;;;16.95;78.60
54512;BME280;40419;47.438;19.026;2023-06-05T01:48:26;100149.13;;;16.87;80.24
54512;BME280;40419;47.438;19.026;2023-06-05T01:50:58;100143.66;;;16.98;75.24
54512;BME280;40419;47.438;19.026;2023-06-05T01:53:30;100146.47;;;16.92;77.12
54512;BME280;40419;47.438;19.026;2023-06-05T01:55:58;100149.94;;;17.11;75.15
54512;BME280;40419;47.438;19.026;2023-06-05T01:58:29;100155.66;;;16.97;75.80
54512;BME280;40419;47.438;19.026;2023-06-05T02:00:54;100154.44;;;16.93;79.04
54512;BME280;40419;47.438;19.026;2023-06-05T02:03:23;100145.28;;;16.88;79.45
54512;BME280;40419;47.438;19.026;2023-06-05T02:05:49;100147.16;;;16.75;80.27
54512;BME280;40419;47.438;19.026;2023-06-05T02:08:22;100152.16;;;16.78;80.14
54512;BME280;40419;47.438;19.026;2023-06-05T02:10:48;100143.94;;;16.78;80.81
54512;BME280;40419;47.438;19.026;2023-06-05T02:13:18;100146.44;;;16.80;81.71
54512;BME280;40419;47.438;19.026;2023-06-05T02:15:45;100149.78;;;16.82;80.95
54512;BME280;40419;47.438;19.026;2023-06-05T02:18:11;100154.78;;;16.73;81.87
54512;BME280;40419;47.438;19.026;2023-06-05T02:20:41;100147.41;;;16.74;80.71
54512;BME280;40419;47.438;19.026;2023-06-05T02:23:09;100144.81;;;16.79;79.59
54512;BME280;40419;47.438;19.026;2023-06-05T02:25:39;100150.03;;;16.80;81.66
54512;BME280;40419;47.438;19.026;2023-06-05T02:28:07;100149.78;;;16.82;81.25
54512;BME280;40419;47.438;19.026;2023-06-05T02:30:35;100145.50;;;16.74;81.77
54512;BME280;40419;47.438;19.026;2023-06-05T02:33:06;100154.53;;;16.75;82.51
54512;BME280;40419;47.438;19.026;2023-06-05T02:35:36;100138.69;;;16.65;82.44
54512;BME280;40419;47.438;19.026;2023-06-05T02:38:04;100140.28;;;16.61;83.26
54512;BME280;40419;47.438;19.026;2023-06-05T02:40:34;100144.66;;;16.62;83.01
54512;BME280;40419;47.438;19.026;2023-06-05T02:43:00;100152.16;;;16.55;83.93
54512;BME280;40419;47.438;19.026;2023-06-05T02:45:34;100142.03;;;16.55;83.72
54512;BME280;40419;47.438;19.026;2023-06-05T02:48:00;100148.09;;;16.57;83.29
54512;BME280;40419;47.438;19.026;2023-06-05T02:50:30;100152.00;;;16.50;85.60
54512;BME280;40419;47.438;19.026;2023-06-05T02:53:01;100147.72;;;16.42;85.66
54512;BME280;40419;47.438;19.026;2023-06-05T02:55:33;100146.88;;;16.41;85.30
54512;BME280;40419;47.438;19.026;2023-06-05T02:58:07;100149.63;;;16.41;85.67
54512;BME280;40419;47.438;19.026;2023-06-05T03:00:41;100145.09;;;16.47;86.36
54512;BME280;40419;47.438;19.026;2023-06-05T03:03:09;100140.84;;;16.51;86.83
54512;BME280;40419;47.438;19.026;2023-06-05T03:05:40;100129.88;;;16.39;87.96
54512;BME280;40419;47.438;19.026;2023-06-05T03:08:10;100128.00;;;16.40;85.61
54512;BME280;40419;47.438;19.026;2023-06-05T03:10:41;100123.69;;;16.44;87.13
54512;BME280;40419;47.438;19.026;2023-06-05T03:13:08;100135.38;;;16.51;87.43
54512;BME280;40419;47.438;19.026;2023-06-05T03:15:39;100124.91;;;16.48;86.31
54512;BME280;40419;47.438;19.026;2023-06-05T03:18:07;100134.66;;;16.56;86.23
54512;BME280;40419;47.438;19.026;2023-06-05T03:20:37;100130.75;;;16.52;85.37
54512;BME280;40419;47.438;19.026;2023-06-05T03:23:06;100134.31;;;16.52;85.13
54512;BME280;40419;47.438;19.026;2023-06-05T03:25:35;100133.94;;;16.48;87.19
54512;BME280;40419;47.438;19.026;2023-06-05T03:28:00;100137.78;;;16.59;86.18
54512;BME280;40419;47.438;19.026;2023-06-05T03:30:27;100143.00;;;16.61;84.28
54512;BME280;40419;47.438;19.026;2023-06-05T03:32:59;100136.22;;;16.63;82.99
54512;BME280;40419;47.438;19.026;2023-06-05T03:35:28;100134.19;;;16.71;83.88
54512;BME280;40419;47.438;19.026;2023-06-05T03:38:02;100143.94;;;16.78;85.66
54512;BME280;40419;47.438;19.026;2023-06-05T03:40:32;100140.28;;;16.73;88.24
54512;BME280;40419;47.438;19.026;2023-06-05T03:42:58;100138.13;;;16.75;86.74
54512;BME280;40419;47.438;19.026;2023-06-05T03:45:29;100139.69;;;16.82;86.44
54512;BME280;40419;47.438;19.026;2023-06-05T03:48:00;100146.38;;;16.87;86.40
54512;BME280;40419;47.438;19.026;2023-06-05T03:50:32;100154.81;;;16.97;84.59
54512;BME280;40419;47.438;19.026;2023-06-05T03:53:08;100154.44;;;17.05;83.19
54512;BME280;40419;47.438;19.026;2023-06-05T03:55:42;100145.66;;;17.03;85.41
54512;BME280;40419;47.438;19.026;2023-06-05T03:58:18;100156.72;;;17.20;83.64
54512;BME280;40419;47.438;19.026;2023-06-05T04:00:47;100158.13;;;17.23;83.83
54512;BME280;40419;47.438;19.026;2023-06-05T04:03:19;100161.13;;;17.21;84.82
54512;BME280;40419;47.438;19.026;2023-06-05T04:05:48;100150.75;;;17.35;80.15
54512;BME280;40419;47.438;19.026;2023-06-05T04:08:18;100153.22;;;17.48;82.10
54512;BME280;40419;47.438;19.026;2023-06-05T04:10:43;100152.25;;;17.54;82.81
54512;BME280;40419;47.438;19.026;2023-06-05T04:13:12;100147.03;;;17.53;79.44
54512;BME280;40419;47.438;19.026;2023-06-05T04:15:40;100161.78;;;17.52;82.03
54512;BME280;40419;47.438;19.026;2023-06-05T04:18:06;100153.88;;;17.67;82.68
54512;BME280;40419;47.438;19.026;2023-06-05T04:20:35;100150.06;;;17.68;81.67
54512;BME280;40419;47.438;19.026;2023-06-05T04:23:05;100148.09;;;17.52;81.84
54512;BME280;40419;47.438;19.026;2023-06-05T04:25:37;100150.00;;;17.51;82.85
54512;BME280;40419;47.438;19.026;2023-06-05T04:28:06;100145.56;;;17.62;84.23
54512;BME280;40419;47.438;19.026;2023-06-05T04:30:33;100143.28;;;17.71;80.69
54512;BME280;40419;47.438;19.026;2023-06-05T04:32:58;100145.53;;;17.74;81.72
54512;BME280;40419;47.438;19.026;2023-06-05T04:35:27;100154.81;;;17.73;80.53
54512;BME280;40419;47.438;19.026;2023-06-05T04:37:57;100147.19;;;17.63;81.13
54512;BME280;40419;47.438;19.026;2023-06-05T04:40:26;100154.06;;;17.78;79.04
54512;BME280;40419;47.438;19.026;2023-06-05T04:42:55;100152.41;;;17.77;79.01
54512;BME280;40419;47.438;19.026;2023-06-05T04:45:23;100150.75;;;17.76;78.77
54512;BME280;40419;47.438;19.026;2023-06-05T04:47:51;100150.63;;;17.70;78.23
54512;BME280;40419;47.438;19.026;2023-06-05T04:50:25;100152.28;;;17.83;78.48
54512;BME280;40419;47.438;19.026;2023-06-05T04:52:54;100153.75;;;17.74;79.58
54512;BME280;40419;47.438;19.026;2023-06-05T04:55:21;100153.13;;;17.72;77.35
54512;BME280;40419;47.438;19.026;2023-06-05T04:57:49;100155.53;;;17.68;78.43
54512;BME280;40419;47.438;19.026;2023-06-05T05:00:17;100151.34;;;17.89;76.23
54512;BME280;40419;47.438;19.026;2023-06-05T05:02:46;100154.28;;;17.88;77.26
54512;BME280;40419;47.438;19.026;2023-06-05T05:05:12;100152.53;;;17.82;75.97
54512;BME280;40419;47.438;19.026;2023-06-05T05:07:42;100154.16;;;17.83;75.66
54512;BME280;40419;47.438;19.026;2023-06-05T05:10:09;100152.50;;;17.94;76.36
54512;BME280;40419;47.438;19.026;2023-06-05T05:12:36;100149.69;;;18.05;76.33
54512;BME280;40419;47.438;19.026;2023-06-05T05:15:03;100146.53;;;17.97;76.30
54512;BME280;40419;47.438;19.026;2023-06-05T05:17:30;100153.91;;;17.96;74.75
54512;BME280;40419;47.438;19.026;2023-06-05T05:19:58;100142.47;;;17.99;79.15
54512;BME280;40419;47.438;19.026;2023-06-05T05:22:31;100153.66;;;17.98;75.80
54512;BME280;40419;47.438;19.026;2023-06-05T05:24:59;100152.94;;;18.02;76.53
54512;BME280;40419;47.438;19.026;2023-06-05T05:27:29;100154.03;;;18.01;75.00
54512;BME280;40419;47.438;19.026;2023-06-05T05:29:58;100154.22;;;18.12;75.15
54512;BME280;40419;47.438;19.026;2023-06-05T05:32:26;100155.47;;;18.21;73.17
54512;BME280;40419;47.438;19.026;2023-06-05T05:34:56;100154.88;;;18.19;76.11
54512;BME280;40419;47.438;19.026;2023-06-05T05:37:24;100156.25;;;18.33;71.78
54512;BME280;40419;47.438;19.026;2023-06-05T05:39:53;100161.47;;;18.18;71.16
54512;BME280;40419;47.438;19.026;2023-06-05T05:42:21;100159.63;;;18.23;71.20
54512;BME280;40419;47.438;19.026;2023-06-05T05:44:49;100157.41;;;18.37;71.45
54512;BME280;40419;47.438;19.026;2023-06-05T05:47:15;100159.03;;;18.21;71.23
54512;BME280;40419;47.438;19.026;2023-06-05T05:49:43;100163.97;;;18.36;70.96
54512;BME280;40419;47.438;19.026;2023-06-05T05:52:09;100158.31;;;18.43;70.65
54512;BME280;40419;47.438;19.026;2023-06-05T05:54:34;100158.06;;;18.28;70.79
54512;BME280;40419;47.438;19.026;2023-06-05T05:57:00;100152.25;;;18.24;71.55
54512;BME280;40419;47.438;19.026;2023-06-05T05:59:28;100159.78;;;18.17;72.72
54512;BME280;40419;47.438;19.026;2023-06-05T06:01:56;100150.16;;;18.31;70.51
54512;BME280;40419;47.438;19.026;2023-06-05T06:04:26;100158.16;;;18.33;70.85
54512;BME280;40419;47.438;19.026;2023-06-05T06:06:56;100149.19;;;18.37;71.19
54512;BME280;40419;47.438;19.026;2023-06-05T06:09:22;100169.88;;;18.45;70.62
54512;BME280;40419;47.438;19.026;2023-06-05T06:11:51;100158.88;;;18.28;73.52
54512;BME280;40419;47.438;19.026;2023-06-05T06:14:23;100160.91;;;18.33;72.17
54512;BME280;40419;47.438;19.026;2023-06-05T06:16:51;100164.22;;;18.52;71.89
54512;BME280;40419;47.438;19.026;2023-06-05T06:19:19;100149.59;;;18.46;71.40
54512;BME280;40419;47.438;19.026;2023-06-05T06:21:50;100160.41;;;18.36;74.82
54512;BME280;40419;47.438;19.026;2023-06-05T06:24:20;100162.06;;;18.37;75.17
54512;BME280;40419;47.438;19.026;2023-06-05T06:26:47;100158.75;;;18.35;75.11
54512;BME280;40419;47.438;19.026;2023-06-05T06:29:24;100157.94;;;18.51;74.27
54512;BME280;40419;47.438;19.026;2023-06-05T06:31:52;100154.94;;;18.53;72.49
54512;BME280;40419;47.438;19.026;2023-06-05T06:34:18;100151.19;;;18.59;73.12
54512;BME280;40419;47.438;19.026;2023-06-05T06:36:48;100149.13;;;18.66;72.89
54512;BME280;40419;47.438;19.026;2023-06-05T06:39:17;100159.94;;;18.90;72.06
54512;BME280;40419;47.438;19.026;2023-06-05T06:41:45;100162.25;;;18.64;73.82
54512;BME280;40419;47.438;19.026;2023-06-05T06:44:13;100160.75;;;18.73;72.18
54512;BME280;40419;47.438;19.026;2023-06-05T06:46:41;100157.34;;;18.66;72.07
54512;BME280;40419;47.438;19.026;2023-06-05T06:49:09;100150.88;;;18.89;71.65
54512;BME280;40419;47.438;19.026;2023-06-05T06:51:35;100151.63;;;18.68;72.92
54512;BME280;40419;47.438;19.026;2023-06-05T06:54:00;100151.28;;;18.81;73.92
54512;BME280;40419;47.438;19.026;2023-06-05T06:56:26;100147.44;;;18.65;74.16
54512;BME280;40419;47.438;19.026;2023-06-05T06:58:57;100156.34;;;18.72;76.12
54512;BME280;40419;47.438;19.026;2023-06-05T07:01:22;100150.63;;;18.74;72.27
54512;BME280;40419;47.438;19.026;2023-06-05T07:03:50;100142.22;;;18.98;72.58
54512;BME280;40419;47.438;19.026;2023-06-05T07:06:19;100147.56;;;18.87;72.32
54512;BME280;40419;47.438;19.026;2023-06-05T07:08:47;100154.19;;;18.91;70.38
54512;BME280;40419;47.438;19.026;2023-06-05T07:11:12;100153.53;;;18.84;70.91
54512;BME280;40419;47.438;19.026;2023-06-05T07:13:38;100151.03;;;18.83;70.58
54512;BME280;40419;47.438;19.026;2023-06-05T07:16:05;100151.81;;;19.17;71.69
54512;BME280;40419;47.438;19.026;2023-06-05T07:18:33;100157.34;;;19.00;69.07
54512;BME280;40419;47.438;19.026;2023-06-05T07:21:05;100155.66;;;19.16;67.03
54512;BME280;40419;47.438;19.026;2023-06-05T07:23:33;100149.84;;;19.12;70.14
54512;BME280;40419;47.438;19.026;2023-06-05T07:26:01;100154.25;;;19.13;68.04
54512;BME280;40419;47.438;19.026;2023-06-05T07:28:29;100158.66;;;19.15;67.72
54512;BME280;40419;47.438;19.026;2023-06-05T07:30:54;100162.13;;;19.27;66.42
54512;BME280;40419;47.438;19.026;2023-06-05T07:33:24;100162.19;;;19.32;67.01
54512;BME280;40419;47.438;19.026;2023-06-05T07:35:56;100157.97;;;19.24;68.60
54512;BME280;40419;47.438;19.026;2023-06-05T07:38:24;100165.19;;;19.30;66.59
54512;BME280;40419;47.438;19.026;2023-06-05T07:40:53;100166.34;;;19.35;68.67
54512;BME280;40419;47.438;19.026;2023-06-05T07:43:19;100166.41;;;19.40;65.69
54512;BME280;40419;47.438;19.026;2023-06-05T07:45:46;100162.91;;;19.44;65.53
54512;BME280;40419;47.438;19.026;2023-06-05T07:48:19;100167.25;;;19.62;64.99
54512;BME280;40419;47.438;19.026;2023-06-05T07:50:45;100161.06;;;19.50;62.00
54512;BME280;40419;47.438;19.026;2023-06-05T07:53:11;100169.28;;;19.50;63.74
54512;BME280;40419;47.438;19.026;2023-06-05T07:55:39;100166.63;;;19.55;62.38
54512;BME280;40419;47.438;19.026;2023-06-05T07:58:06;100168.09;;;19.63;65.58
54512;BME280;40419;47.438;19.026;2023-06-05T08:00:37;100167.31;;;19.68;63.14
54512;BME280;40419;47.438;19.026;2023-06-05T08:03:17;100154.63;;;19.61;64.91
54512;BME280;40419;47.438;19.026;2023-06-05T08:05:51;100161.69;;;19.57;65.16
54512;BME280;40419;47.438;19.026;2023-06-05T08:08:17;100163.38;;;19.80;62.13
54512;BME280;40419;47.438;19.026;2023-06-05T08:10:45;100162.59;;;19.85;64.74
54512;BME280;40419;47.438;19.026;2023-06-05T08:13:13;100155.47;;;19.84;64.83
54512;BME280;40419;47.438;19.026;2023-06-05T08:15:38;100166.59;;;19.94;63.22
54512;BME280;40419;47.438;19.026;2023-06-05T08:18:10;100165.44;;;19.90;62.33
54512;BME280;40419;47.438;19.026;2023-06-05T08:20:38;100170.44;;;19.98;63.26
54512;BME280;40419;47.438;19.026;2023-06-05T08:23:08;100165.81;;;19.99;63.10
54512;BME280;40419;47.438;19.026;2023-06-05T08:25:36;100175.13;;;19.98;60.99
54512;BME280;40419;47.438;19.026;2023-06-05T08:28:06;100173.28;;;20.04;60.02
54512;BME280;40419;47.438;19.026;2023-06-05T08:30:32;100168.97;;;20.13;60.92
54512;BME280;40419;47.438;19.026;2023-06-05T08:33:00;100163.31;;;20.25;61.20
54512;BME280;40419;47.438;19.026;2023-06-05T08:35:28;100163.84;;;20.22;61.13
54512;BME280;40419;47.438;19.026;2023-06-05T08:38:01;100164.25;;;20.08;61.90
54512;BME280;40419;47.438;19.026;2023-06-05T08:40:28;100165.28;;;20.29;61.84
54512;BME280;40419;47.438;19.026;2023-06-05T08:42:57;100163.06;;;20.26;61.38
54512;BME280;40419;47.438;19.026;2023-06-05T08:45:22;100168.19;;;20.17;61.62
54512;BME280;40419;47.438;19.026;2023-06-05T08:47:50;100166.94;;;20.30;62.58
54512;BME280;40419;47.438;19.026;2023-06-05T08:50:16;100166.13;;;20.30;64.35
54512;BME280;40419;47.438;19.026;2023-06-05T08:52:43;100166.47;;;20.39;63.20
54512;BME280;40419;47.438;19.026;2023-06-05T08:55:14;100167.13;;;20.51;63.34
54512;BME280;40419;47.438;19.026;2023-06-05T08:57:41;100166.97;;;20.63;63.39
54512;BME280;40419;47.438;19.026;2023-06-05T09:00:07;100168.41;;;20.65;63.42
54512;BME280;40419;47.438;19.026;2023-06-05T09:02:40;100169.06;;;20.83;63.12
54512;BME280;40419;47.438;19.026;2023-06-05T09:05:11;100163.56;;;20.83;63.93
54512;BME280;40419;47.438;19.026;2023-06-05T09:07:39;100161.50;;;21.00;61.44
54512;BME280;40419;47.438;19.026;2023-06-05T09:10:25;100167.06;;;21.11;58.79
54512;BME280;40419;47.438;19.026;2023-06-05T09:12:59;100159.09;;;21.14;59.54
54512;BME280;40419;47.438;19.026;2023-06-05T09:18:11;100149.31;;;21.39;58.74
54512;BME280;40419;47.438;19.026;2023-06-05T09:20:44;100149.84;;;21.36;57.46
54512;BME280;40419;47.438;19.026;2023-06-05T09:23:27;100157.44;;;21.56;56.10
54512;BME280;40419;47.438;19.026;2023-06-05T09:25:56;100148.97;;;21.73;54.74
54512;BME280;40419;47.438;19.026;2023-06-05T09:28:22;100151.41;;;21.69;55.50
54512;BME280;40419;47.438;19.026;2023-06-05T09:31:01;100159.41;;;21.71;52.92
54512;BME280;40419;47.438;19.026;2023-06-05T09:33:33;100164.38;;;21.69;55.72
54512;BME280;40419;47.438;19.026;2023-06-05T09:36:10;100157.19;;;21.68;56.07
54512;BME280;40419;47.438;19.026;2023-06-05T09:38:39;100159.84;;;21.47;55.28
54512;BME280;40419;47.438;19.026;2023-06-05T09:41:12;100167.75;;;21.91;57.83
54512;BME280;40419;47.438;19.026;2023-06-05T09:43:39;100168.25;;;21.78;54.00
54512;BME280;40419;47.438;19.026;2023-06-05T09:46:16;100157.81;;;21.90;53.89
54512;BME280;40419;47.438;19.026;2023-06-05T09:48:52;100155.38;;;21.99;56.08
54512;BME280;40419;47.438;19.026;2023-06-05T09:51:24;100152.13;;;22.23;58.03
54512;BME280;40419;47.438;19.026;2023-06-05T09:53:50;100151.88;;;22.40;53.73
54512;BME280;40419;47.438;19.026;2023-06-05T09:56:17;100146.94;;;22.47;52.59
54512;BME280;40419;47.438;19.026;2023-06-05T09:58:48;100146.38;;;22.40;50.99
54512;BME280;40419;47.438;19.026;2023-06-05T10:01:18;100146.34;;;22.96;53.65
54512;BME280;40419;47.438;19.026;2023-06-05T10:03:49;100139.59;;;23.49;52.63
54512;BME280;40419;47.438;19.026;2023-06-05T10:06:16;100137.06;;;23.63;48.90
54512;BME280;40419;47.438;19.026;2023-06-05T10:08:48;100135.38;;;23.67;46.56
54512;BME280;40419;47.438;19.026;2023-06-05T10:11:15;100137.22;;;23.92;45.95
54512;BME280;40419;47.438;19.026;2023-06-05T10:13:43;100130.31;;;23.19;44.45
54512;BME280;40419;47.438;19.026;2023-06-05T10:16:11;100133.75;;;23.61;46.54
54512;BME280;40419;47.438;19.026;2023-06-05T10:18:39;100129.50;;;23.84;42.92
54512;BME280;40419;47.438;19.026;2023-06-05T10:21:06;100123.84;;;24.04;45.12
54512;BME280;40419;47.438;19.026;2023-06-05T10:23:33;100124.97;;;24.43;42.50
54512;BME280;40419;47.438;19.026;2023-06-05T10:26:05;100128.72;;;24.63;41.72
54512;BME280;40419;47.438;19.026;2023-06-05T10:31:26;100117.09;;;24.61;41.13
54512;BME280;40419;47.438;19.026;2023-06-05T10:34:04;100110.13;;;24.34;41.03
54512;BME280;40419;47.438;19.026;2023-06-05T10:36:52;100113.16;;;24.32;39.61
54512;BME280;40419;47.438;19.026;2023-06-05T10:39:22;100101.31;;;24.27;40.96
54512;BME280;40419;47.438;19.026;2023-06-05T10:41:51;100107.63;;;24.32;41.80
54512;BME280;40419;47.438;19.026;2023-06-05T10:44:40;100110.28;;;24.48;41.53
54512;BME280;40419;47.438;19.026;2023-06-05T10:50:21;100110.91;;;24.00;43.14
54512;BME280;40419;47.438;19.026;2023-06-05T10:52:51;100104.25;;;23.46;43.18
54512;BME280;40419;47.438;19.026;2023-06-05T10:55:22;100116.34;;;23.55;41.24
54512;BME280;40419;47.438;19.026;2023-06-05T11:00:36;100102.75;;;24.19;42.62
54512;BME280;40419;47.438;19.026;2023-06-05T11:03:02;100099.59;;;23.96;42.25
54512;BME280;40419;47.438;19.026;2023-06-05T11:05:29;100093.50;;;23.99;41.08
54512;BME280;40419;47.438;19.026;2023-06-05T11:10:36;100096.00;;;24.35;43.18
54512;BME280;40419;47.438;19.026;2023-06-05T11:13:04;100095.16;;;24.35;42.92
54512;BME280;40419;47.438;19.026;2023-06-05T11:15:37;100083.19;;;24.10;42.29
54512;BME280;40419;47.438;19.026;2023-06-05T11:20:56;100083.78;;;24.02;44.93
54512;BME280;40419;47.438;19.026;2023-06-05T11:23:24;100087.78;;;24.20;45.05
54512;BME280;40419;47.438;19.026;2023-06-05T11:25:55;100080.91;;;24.52;43.32
54512;BME280;40419;47.438;19.026;2023-06-05T11:28:42;100089.41;;;24.61;44.20
54512;BME280;40419;47.438;19.026;2023-06-05T11:31:13;100076.78;;;24.15;47.17
54512;BME280;40419;47.438;19.026;2023-06-05T11:33:52;100082.25;;;24.54;45.29
54512;BME280;40419;47.438;19.026;2023-06-05T11:36:22;100073.84;;;24.35;47.48
54512;BME280;40419;47.438;19.026;2023-06-05T11:38:53;100068.94;;;24.27;46.71
54512;BME280;40419;47.438;19.026;2023-06-05T11:41:19;100073.66;;;24.56;45.93
54512;BME280;40419;47.438;19.026;2023-06-05T11:43:45;100067.31;;;23.81;46.24
54512;BME280;40419;47.438;19.026;2023-06-05T11:46:13;100075.13;;;24.14;47.02
54512;BME280;40419;47.438;19.026;2023-06-05T11:48:45;100073.06;;;24.30;46.83
54512;BME280;40419;47.438;19.026;2023-06-05T11:51:13;100067.56;;;24.24;46.29
54512;BME280;40419;47.438;19.026;2023-06-05T11:53:44;100068.25;;;24.11;46.24
54512;BME280;40419;47.438;19.026;2023-06-05T11:56:15;100057.75;;;24.08;46.61
54512;BME280;40419;47.438;19.026;2023-06-05T11:58:42;100053.28;;;24.12;49.43
54512;BME280;40419;47.438;19.026;2023-06-05T12:01:17;100053.03;;;24.09;47.34
54512;BME280;40419;47.438;19.026;2023-06-05T12:03:49;100055.41;;;23.86;46.40
54512;BME280;40419;47.438;19.026;2023-06-05T12:06:17;100048.97;;;23.96;46.34
54512;BME280;40419;47.438;19.026;2023-06-05T12:08:47;100049.06;;;23.85;46.67
54512;BME280;40419;47.438;19.026;2023-06-05T12:11:26;100047.63;;;23.93;45.89
54512;BME280;40419;47.438;19.026;2023-06-05T12:13:53;100039.56;;;23.97;46.22
54512;BME280;40419;47.438;19.026;2023-06-05T12:16:29;100039.91;;;23.90;47.05
54512;BME280;40419;47.438;19.026;2023-06-05T12:18:56;100040.94;;;23.99;46.97
54512;BME280;40419;47.438;19.026;2023-06-05T12:21:27;100034.34;;;23.95;45.27
54512;BME280;40419;47.438;19.026;2023-06-05T12:24:03;100043.53;;;24.20;46.14
54512;BME280;40419;47.438;19.026;2023-06-05T12:29:24;100027.50;;;24.17;46.55
54512;BME280;40419;47.438;19.026;2023-06-05T12:31:51;100027.66;;;24.01;48.40
54512;BME280;40419;47.438;19.026;2023-06-05T12:34:46;100026.03;;;23.95;45.59
54512;BME280;40419;47.438;19.026;2023-06-05T12:39:50;100028.00;;;24.29;47.47
54512;BME280;40419;47.438;19.026;2023-06-05T12:42:18;100020.50;;;23.95;44.67
54512;BME280;40419;47.438;19.026;2023-06-05T12:44:46;100020.28;;;23.92;47.18
54512;BME280;40419;47.438;19.026;2023-06-05T12:47:12;100010.53;;;23.99;45.47
54512;BME280;40419;47.438;19.026;2023-06-05T12:49:37;100007.47;;;24.01;45.85
54512;BME280;40419;47.438;19.026;2023-06-05T12:52:04;100018.13;;;24.18;43.76
54512;BME280;40419;47.438;19.026;2023-06-05T12:54:32;100002.16;;;24.10;43.40
54512;BME280;40419;47.438;19.026;2023-06-05T12:57:00;100008.56;;;24.34;42.03
54512;BME280;40419;47.438;19.026;2023-06-05T12:59:25;100002.53;;;24.27;41.38
54512;BME280;40419;47.438;19.026;2023-06-05T13:01:51;99993.44;;;24.21;40.43
54512;BME280;40419;47.438;19.026;2023-06-05T13:04:16;99993.31;;;24.37;40.89
54512;BME280;40419;47.438;19.026;2023-06-05T13:06:42;100000.94;;;24.21;42.54
54512;BME280;40419;47.438;19.026;2023-06-05T13:09:08;99999.78;;;24.56;40.86
54512;BME280;40419;47.438;19.026;2023-06-05T13:11:38;99997.78;;;24.62;41.14
54512;BME280;40419;47.438;19.026;2023-06-05T13:14:06;99998.72;;;24.47;38.28
54512;BME280;40419;47.438;19.026;2023-06-05T13:16:31;99989.00;;;24.55;39.05
54512;BME280;40419;47.438;19.026;2023-06-05T13:18:57;99992.97;;;24.44;39.85